Time;durP1;ratioP1;P1;durP2;ratioP2;P2;SDS_P1;SDS_P2;PMS_P1;PMS_P2;Temp;Humidity;BMP_temperature;BMP_pressure;BME280_temperature;BME280_humidity;BME280_pressure;Samples;Min_cycle;Max_cycle;Signal;HPM_P1;HPM_P2
2020/12/10 00:00:07;;;;;;;26.70;12.50;;;8.20;58.00;;;;;;6247475;22;20011;-75
2020/12/10 00:02:34;;;;;;;22.65;10.60;;;;;;;;;;6246966;22;20486;-71
2020/12/10 00:05:00;;;;;;;26.98;11.82;;;;;;;;;;6274445;22;20012;-72
2020/12/10 00:07:27;;;;;;;22.63;11.27;;;;;;;;;;6275590;22;20527;-73
2020/12/10 00:09:54;;;;;;;36.72;11.52;;;;;;;;;;6249316;22;20004;-73
2020/12/10 00:12:21;;;;;;;26.95;11.98;;;8.10;57.90;;;;;;6282618;22;20011;-72
2020/12/10 00:14:53;;;;;;;24.67;11.75;;;;;;;;;;6282626;22;20008;-71
2020/12/10 00:17:29;;;;;;;27.50;11.98;;;8.00;57.60;;;;;;6255154;22;20011;-72
2020/12/10 00:19:56;;;;;;;25.70;11.97;;;8.10;57.80;;;;;;6282486;22;20013;-71
2020/12/10 00:22:23;;;;;;;25.83;12.23;;;7.90;57.80;;;;;;6255425;22;20336;-70
2020/12/10 00:24:50;;;;;;;29.17;11.05;;;8.00;58.00;;;;;;6230097;22;20014;-73
2020/12/10 00:27:17;;;;;;;28.95;12.93;;;7.80;58.00;;;;;;6282710;22;20480;-73
2020/12/10 00:29:45;;;;;;;26.65;11.38;;;7.90;57.90;;;;;;6282161;22;20012;-71
2020/12/10 00:32:13;;;;;;;27.20;12.10;;;7.80;58.10;;;;;;6277825;22;20007;-72
2020/12/10 00:34:40;;;;;;;29.98;11.38;;;;;;;;;;6275844;22;20015;-72
2020/12/10 00:37:06;;;;;;;23.17;10.90;;;;;;;;;;6276081;22;20016;-73
2020/12/10 00:39:34;;;;;;;26.98;11.60;;;7.60;57.90;;;;;;6276233;22;20008;-74
2020/12/10 00:42:00;;;;;;;29.38;13.23;;;;;;;;;;6248067;22;20012;-73
2020/12/10 00:44:27;;;;;;;23.30;11.57;;;;;;;;;;6223292;22;20012;-72
2020/12/10 00:46:53;;;;;;;24.30;11.20;;;;;;;;;;6248344;22;20003;-72
2020/12/10 00:49:21;;;;;;;28.08;12.50;;;;;;;;;;6275738;22;20014;-72
2020/12/10 00:51:48;;;;;;;21.63;11.15;;;6.90;59.70;;;;;;6222952;22;20042;-72
2020/12/10 00:54:15;;;;;;;25.15;10.38;;;;;;;;;;6248784;22;20007;-73
2020/12/10 00:56:42;;;;;;;26.88;12.52;;;;;;;;;;6248659;22;20003;-72
2020/12/10 00:59:08;;;;;;;26.52;10.90;;;;;;;;;;6275627;22;20007;-73
2020/12/10 01:01:34;;;;;;;25.58;11.38;;;;;;;;;;6276687;22;20031;-74
2020/12/10 01:04:01;;;;;;;32.65;11.77;;;;;;;;;;6275568;22;20029;-73
2020/12/10 01:06:27;;;;;;;24.52;11.25;;;;;;;;;;6275071;22;20008;-72
2020/12/10 01:08:53;;;;;;;25.75;11.90;;;;;;;;;;6248423;22;20099;-72
2020/12/10 01:11:26;;;;;;;28.88;11.27;;;5.70;62.70;;;;;;6275294;22;20039;-71
2020/12/10 01:13:52;;;;;;;19.67;9.82;;;;;;;;;;6275415;22;20008;-72
2020/12/10 01:16:18;;;;;;;27.08;11.05;;;;;;;;;;6250684;22;20046;-73
2020/12/10 01:18:44;;;;;;;25.55;11.50;;;;;;;;;;6251452;22;20007;-71
2020/12/10 01:21:10;;;;;;;24.75;10.35;;;;;;;;;;6275429;22;20008;-71
2020/12/10 01:23:37;;;;;;;21.98;10.65;;;;;;;;;;6275340;22;20007;-72
2020/12/10 01:26:03;;;;;;;17.92;9.15;;;;;;;;;;6275183;22;20039;-71
2020/12/10 01:28:29;;;;;;;24.83;12.13;;;;;;;;;;6275233;22;20019;-71
2020/12/10 01:30:55;;;;;;;29.67;11.82;;;;;;;;;;6275058;22;20004;-72
2020/12/10 01:33:22;;;;;;;29.80;12.68;;;;;;;;;;6275107;22;20011;-72
2020/12/10 01:35:48;;;;;;;27.42;12.15;;;;;;;;;;6275043;22;20018;-73
2020/12/10 01:38:14;;;;;;;29.65;10.77;;;;;;;;;;6275308;22;20018;-71
2020/12/10 01:40:40;;;;;;;24.45;11.88;;;;;;;;;;6275375;22;19999;-71
2020/12/10 01:43:07;;;;;;;26.77;12.85;;;;;;;;;;6247831;22;20018;-72
2020/12/10 01:45:33;;;;;;;26.23;12.23;;;;;;;;;;6277875;22;20007;-72
2020/12/10 01:47:59;;;;;;;29.60;12.45;;;;;;;;;;6278781;22;20073;-70
2020/12/10 01:50:25;;;;;;;29.33;13.68;;;;;;;;;;6276412;22;20007;-72
2020/12/10 01:52:52;;;;;;;26.33;13.20;;;4.80;65.50;;;;;;6248863;22;20019;-72
2020/12/10 01:55:19;;;;;;;23.75;11.55;;;;;;;;;;6275755;22;20069;-73
2020/12/10 01:57:45;;;;;;;26.08;12.07;;;;;;;;;;6275368;22;20039;-72
2020/12/10 02:00:11;;;;;;;27.85;12.27;;;;;;;;;;6275292;22;20043;-72
2020/12/10 02:02:39;;;;;;;30.27;13.15;;;;;;;;;;6275504;22;20073;-72
2020/12/10 02:05:05;;;;;;;26.23;11.85;;;;;;;;;;6275481;22;20012;-72
2020/12/10 02:07:33;;;;;;;26.75;11.25;;;;;;;;;;6274943;22;20019;-73
2020/12/10 02:09:59;;;;;;;29.60;13.38;;;;;;;;;;6247554;22;20171;-71
2020/12/10 02:12:25;;;;;;;21.60;10.80;;;;;;;;;;6275276;22;20090;-71
2020/12/10 02:14:51;;;;;;;26.95;12.82;;;;;;;;;;6275025;22;20008;-71
2020/12/10 02:17:18;;;;;;;29.48;12.73;;;;;;;;;;6274973;22;20003;-71
2020/12/10 02:19:46;;;;;;;26.20;10.93;;;;;;;;;;6274567;22;20014;-71
2020/12/10 02:22:12;;;;;;;25.85;12.65;;;;;;;;;;6274995;22;20017;-72
2020/12/10 02:24:38;;;;;;;27.10;12.43;;;;;;;;;;6274482;22;20011;-73
2020/12/10 02:27:05;;;;;;;30.17;12.73;;;;;;;;;;6274744;22;20007;-72
2020/12/10 02:29:31;;;;;;;34.28;13.52;;;;;;;;;;6247379;22;20014;-69
2020/12/10 02:31:57;;;;;;;23.77;11.27;;;;;;;;;;6274757;22;20003;-70
2020/12/10 02:34:23;;;;;;;25.67;12.02;;;;;;;;;;6247683;22;20039;-74
2020/12/10 02:36:50;;;;;;;26.00;13.20;;;;;;;;;;6274082;22;20006;-72
2020/12/10 02:39:16;;;;;;;30.75;13.20;;;;;;;;;;6274805;22;20054;-71
2020/12/10 02:41:42;;;;;;;30.60;13.77;;;;;;;;;;6274219;22;20506;-71
2020/12/10 02:44:08;;;;;;;28.83;13.27;;;;;;;;;;6274787;22;20011;-72
2020/12/10 02:46:35;;;;;;;25.38;12.30;;;;;;;;;;6274708;22;20055;-71
2020/12/10 02:49:01;;;;;;;28.35;12.65;;;;;;;;;;6274518;22;20007;-71
2020/12/10 02:51:27;;;;;;;24.50;11.48;;;;;;;;;;6247744;22;20015;-70
2020/12/10 02:53:53;;;;;;;22.85;11.70;;;;;;;;;;6274654;22;20015;-71
2020/12/10 02:56:20;;;;;;;28.60;13.07;;;;;;;;;;6274320;22;20015;-70
2020/12/10 02:58:46;;;;;;;29.20;13.25;;;;;;;;;;6221870;22;20011;-71
2020/12/10 03:01:12;;;;;;;26.10;12.45;;;;;;;;;;6274648;22;20305;-70
2020/12/10 03:03:39;;;;;;;24.33;13.32;;;;;;;;;;6274601;22;20047;-71
2020/12/10 03:06:06;;;;;;;30.42;13.20;;;4.80;64.20;;;;;;6274047;22;20019;-71
2020/12/10 03:08:33;;;;;;;28.50;12.63;;;;;;;;;;6241973;23;20460;-72
2020/12/10 03:10:59;;;;;;;24.38;12.82;;;;;;;;;;6243694;22;20018;-71
2020/12/10 03:13:27;;;;;;;25.75;11.95;;;4.10;66.20;;;;;;6243830;22;20013;-72
2020/12/10 03:15:53;;;;;;;25.27;12.23;;;;;;;;;;6242378;23;20040;-72
2020/12/10 03:18:19;;;;;;;28.42;11.52;;;;;;;;;;6243786;22;20008;-71
2020/12/10 03:20:45;;;;;;;28.48;13.35;;;;;;;;;;6243933;22;20008;-72
2020/12/10 03:23:12;;;;;;;23.10;11.57;;;;;;;;;;6243647;23;20381;-71
2020/12/10 03:25:38;;;;;;;23.67;12.77;;;;;;;;;;6243914;23;20016;-69
2020/12/10 03:28:04;;;;;;;29.48;13.63;;;;;;;;;;6243594;23;20066;-72
2020/12/10 03:30:31;;;;;;;25.67;12.32;;;;;;;;;;6241955;23;20051;-72
2020/12/10 03:32:57;;;;;;;34.60;13.70;;;;;;;;;;6243607;23;20033;-72
2020/12/10 03:35:23;;;;;;;32.33;14.57;;;;;;;;;;6243544;22;20027;-72
2020/12/10 03:37:50;;;;;;;34.05;13.30;;;;;;;;;;6243794;22;20041;-72
2020/12/10 03:40:16;;;;;;;27.00;13.20;;;;;;;;;;6241638;23;20066;-71
2020/12/10 03:42:43;;;;;;;33.80;13.63;;;;;;;;;;6245593;23;20008;-71
2020/12/10 03:45:09;;;;;;;35.22;12.70;;;;;;;;;;6246448;23;20083;-71
2020/12/10 03:47:35;;;;;;;32.00;13.45;;;;;;;;;;6245734;23;20065;-70
2020/12/10 03:50:01;;;;;;;24.88;11.77;;;;;;;;;;6243983;23;20076;-72
2020/12/10 03:52:27;;;;;;;25.52;11.95;;;;;;;;;;6244718;22;20035;-71
2020/12/10 03:54:55;;;;;;;20.75;9.95;;;;;;;;;;6243728;23;20018;-71
2020/12/10 03:57:21;;;;;;;25.02;13.13;;;;;;;;;;6245347;22;20488;-72
2020/12/10 03:59:47;;;;;;;30.23;13.35;;;;;;;;;;6245394;23;20008;-73
2020/12/10 04:02:13;;;;;;;24.90;12.23;;;;;;;;;;6245652;23;20019;-70
2020/12/10 04:04:40;;;;;;;25.48;12.82;;;;;;;;;;6248489;23;20062;-70
2020/12/10 04:07:06;;;;;;;26.00;12.40;;;;;;;;;;6249871;22;20379;-72
2020/12/10 04:09:32;;;;;;;24.58;11.63;;;;;;;;;;6276131;22;20008;-71
2020/12/10 04:11:58;;;;;;;29.58;13.45;;;;;;;;;;6275453;22;20455;-72
2020/12/10 04:14:25;;;;;;;30.13;13.07;;;5.00;61.60;;;;;;6276215;22;20027;-72
2020/12/10 04:16:52;;;;;;;30.77;12.77;;;;;;;;;;6276173;22;20016;-71
2020/12/10 04:19:18;;;;;;;29.35;13.43;;;;;;;;;;6248616;22;20011;-72
2020/12/10 04:21:44;;;;;;;26.25;11.18;;;;;;;;;;6275602;22;20447;-70
2020/12/10 04:24:10;;;;;;;31.13;13.35;;;;;;;;;;6275682;22;20049;-72
2020/12/10 04:26:37;;;;;;;25.45;12.13;;;;;;;;;;6275732;22;20336;-71
2020/12/10 04:29:03;;;;;;;27.73;12.40;;;;;;;;;;6275946;22;20008;-71
2020/12/10 04:31:29;;;;;;;22.38;11.05;;;;;;;;;;6275522;22;20038;-72
2020/12/10 04:33:55;;;;;;;27.70;12.00;;;;;;;;;;6275731;22;20019;-73
2020/12/10 04:36:22;;;;;;;29.75;12.95;;;;;;;;;;6275469;22;20011;-72
2020/12/10 04:38:48;;;;;;;30.33;12.07;;;;;;;;;;6275848;22;20020;-71
2020/12/10 04:41:14;;;;;;;30.20;12.13;;;;;;;;;;6275769;22;20004;-72
2020/12/10 04:43:40;;;;;;;30.55;12.52;;;;;;;;;;6275471;22;20336;-70
2020/12/10 04:46:07;;;;;;;32.70;11.73;;;;;;;;;;6275458;22;20000;-70
2020/12/10 04:48:35;;;;;;;30.95;12.82;;;4.90;61.30;;;;;;6248627;22;20018;-72
2020/12/10 04:51:05;;;;;;;32.53;13.32;;;4.70;61.40;;;;;;6275658;22;20000;-70
2020/12/10 04:53:31;;;;;;;19.05;10.40;;;;;;;;;;6248420;22;20012;-72
2020/12/10 04:56:02;;;;;;;27.15;11.85;;;4.30;62.80;;;;;;6275219;22;20425;-71
2020/12/10 04:58:28;;;;;;;25.65;11.60;;;;;;;;;;6275355;22;20425;-72
2020/12/10 05:01:02;;;;;;;29.80;12.75;;;;;;;;;;6275439;22;20448;-70
2020/12/10 05:03:29;;;;;;;25.70;11.32;;;4.40;62.50;;;;;;6275648;22;20035;-71
2020/12/10 05:06:08;;;;;;;;;;;4.40;62.90;;;;;;6275893;22;20064;-71
2020/12/10 05:08:35;;;;;;;25.95;11.75;;;;;;;;;;6277555;22;19926;-71
2020/12/10 05:11:01;;;;;;;28.85;12.65;;;;;;;;;;6251000;22;20015;-72
2020/12/10 05:13:28;;;;;;;23.20;11.90;;;;;;;;;;6277378;22;20046;-72
2020/12/10 05:15:54;;;;;;;26.58;10.23;;;;;;;;;;6276207;22;20022;-72
2020/12/10 05:18:21;;;;;;;27.30;12.73;;;;;;;;;;6276544;22;20046;-73
2020/12/10 05:20:51;;;;;;;28.85;12.98;;;4.60;61.60;;;;;;6252248;22;20004;-72
2020/12/10 05:23:39;;;;;;;30.40;13.45;;;4.80;61.50;;;;;;6276112;22;19999;-73
2020/12/10 05:26:06;;;;;;;27.05;12.23;;;4.60;61.60;;;;;;6249019;22;20004;-72
2020/12/10 05:28:47;;;;;;;28.98;12.68;;;4.60;61.50;;;;;;6275933;22;20082;-72
2020/12/10 05:31:16;;;;;;;29.20;12.02;;;4.70;61.50;;;;;;6275539;22;20004;-73
2020/12/10 05:33:53;;;;;;;23.40;11.18;;;4.50;61.70;;;;;;6274816;22;20382;-72
2020/12/10 05:36:20;;;;;;;24.70;12.00;;;;;;;;;;6275488;22;20019;-72
2020/12/10 05:39:08;;;;;;;27.15;12.35;;;4.50;62.20;;;;;;6275646;22;20011;-72
2020/12/10 05:41:36;;;;;;;25.23;12.07;;;4.30;62.30;;;;;;6275187;22;20014;-73
2020/12/10 05:44:25;;;;;;;23.63;10.43;;;4.40;62.10;;;;;;6275113;22;20010;-73
2020/12/10 05:47:04;;;;;;;35.38;12.10;;;4.50;62.30;;;;;;6275113;22;20004;-72
2020/12/10 05:49:30;;;;;;;32.92;12.57;;;;;;;;;;6273722;22;20370;-71
2020/12/10 05:52:05;;;;;;;26.88;11.88;;;4.80;62.00;;;;;;6275236;22;20077;-72
2020/12/10 05:54:35;;;;;;;27.20;13.43;;;4.80;61.60;;;;;;6274960;22;20014;-71
2020/12/10 05:57:05;;;;;;;28.17;12.32;;;4.80;61.10;;;;;;6274779;22;20000;-73
2020/12/10 05:59:33;;;;;;;27.13;11.27;;;4.80;61.00;;;;;;6248049;22;20083;-72
2020/12/10 06:02:04;;;;;;;25.77;11.55;;;4.80;61.20;;;;;;6222492;22;20015;-72
2020/12/10 06:04:30;;;;;;;30.63;12.88;;;;;;;;;;6274695;22;20008;-71
2020/12/10 06:06:58;;;;;;;27.90;12.25;;;4.90;60.80;;;;;;6274190;22;20010;-73
2020/12/10 06:09:25;;;;;;;29.25;12.80;;;5.00;60.30;;;;;;6274328;22;20436;-72
2020/12/10 06:11:59;;;;;;;;;;;5.00;60.80;;;;;;6251895;22;20095;-71
2020/12/10 06:14:25;;;;;;;24.05;11.70;;;;;;;;;;6277460;22;19918;-71
2020/12/10 06:17:06;;;;;;;28.73;12.15;;;4.30;61.80;;;;;;6274762;22;20004;-73
2020/12/10 06:19:33;;;;;;;23.92;10.95;;;4.40;62.20;;;;;;6247640;22;20019;-71
2020/12/10 06:22:25;;;;;;;23.42;11.43;;;4.50;62.00;;;;;;6274131;22;20012;-71
2020/12/10 06:24:56;;;;;;;26.10;12.18;;;4.60;61.60;;;;;;6274520;22;20012;-71
2020/12/10 06:27:41;;;;;;;40.17;13.68;;;4.40;62.00;;;;;;6274442;22;20023;-72
2020/12/10 06:30:11;;;;;;;26.13;11.93;;;4.20;62.80;;;;;;6274388;22;20026;-73
2020/12/10 06:32:42;;;;;;;28.15;13.38;;;4.00;63.50;;;;;;6274418;22;20023;-73
2020/12/10 06:35:29;;;;;;;28.33;12.52;;;4.50;62.60;;;;;;6274203;22;20019;-72
2020/12/10 06:37:57;;;;;;;28.85;12.40;;;4.70;61.40;;;;;;6246522;22;20034;-73
2020/12/10 06:40:40;;;;;;;26.67;11.30;;;4.70;61.10;;;;;;6273720;22;20444;-73
2020/12/10 06:43:08;;;;;;;25.25;11.85;;;4.80;60.70;;;;;;6221864;22;20003;-73
2020/12/10 06:45:39;;;;;;;27.15;12.10;;;4.80;60.60;;;;;;6274075;22;20015;-72
2020/12/10 06:48:10;;;;;;;26.60;11.80;;;4.90;60.40;;;;;;6243791;22;20031;-73
2020/12/10 06:50:38;;;;;;;27.88;12.10;;;4.80;60.40;;;;;;6273742;22;20092;-72
2020/12/10 06:53:15;;;;;;;27.17;12.07;;;4.80;60.00;;;;;;6273338;22;20455;-73
2020/12/10 06:56:04;;;;;;;31.67;12.40;;;4.80;60.50;;;;;;6274076;22;20115;-72
2020/12/10 06:58:37;;;;;;;26.48;11.45;;;4.80;60.30;;;;;;6273889;22;20010;-73
2020/12/10 07:01:43;;;;;;;29.13;13.25;;;4.90;60.40;;;;;;6246898;22;20030;-70
2020/12/10 07:04:33;;;;;;;21.13;11.23;;;4.90;60.10;;;;;;6273386;22;20008;-73
2020/12/10 07:07:25;;;;;;;25.08;11.95;;;5.00;59.80;;;;;;6268564;22;20133;-72
2020/12/10 07:09:53;;;;;;;30.45;12.90;;;4.70;60.10;;;;;;6248917;22;19999;-71
2020/12/10 07:12:24;;;;;;;26.05;12.00;;;4.70;60.40;;;;;;6246369;22;20007;-71
2020/12/10 07:14:51;;;;;;;29.80;12.98;;;;;;;;;;6272475;22;20007;-72
2020/12/10 07:17:18;;;;;;;30.25;13.25;;;4.60;61.10;;;;;;6273418;22;20498;-72
2020/12/10 07:19:44;;;;;;;29.55;13.85;;;;;;;;;;6273707;22;20357;-71
2020/12/10 07:22:11;;;;;;;32.30;13.32;;;;;;;;;;6273712;22;20340;-72
2020/12/10 07:24:37;;;;;;;28.38;13.60;;;;;;;;;;6246320;22;20035;-73
2020/12/10 07:27:05;;;;;;;32.88;14.73;;;;;;;;;;6273764;22;20008;-72
2020/12/10 07:29:31;;;;;;;31.13;13.48;;;;;;;;;;6273928;22;20007;-72
2020/12/10 07:31:57;;;;;;;25.98;12.27;;;;;;;;;;6246574;22;20010;-72
2020/12/10 07:34:24;;;;;;;26.20;13.18;;;;;;;;;;6273526;22;20008;-72
2020/12/10 07:36:53;;;;;;;26.98;12.95;;;4.50;61.70;;;;;;6272956;22;20387;-71
2020/12/10 07:39:29;;;;;;;28.52;12.65;;;4.60;61.20;;;;;;6246704;22;20008;-72
2020/12/10 07:42:18;;;;;;;37.28;14.48;;;4.50;61.60;;;;;;6273755;22;20029;-72
2020/12/10 07:44:47;;;;;;;29.27;13.70;;;4.10;62.30;;;;;;6273275;22;20019;-71
2020/12/10 07:47:13;;;;;;;27.88;11.38;;;;;;;;;;6246360;22;20008;-71
2020/12/10 07:49:40;;;;;;;28.15;12.27;;;;;;;;;;6273118;22;20023;-71
2020/12/10 07:52:11;;;;;;;30.65;13.63;;;4.20;62.30;;;;;;6273242;22;20008;-73
2020/12/10 07:54:50;;;;;;;34.47;14.20;;;4.70;61.60;;;;;;6245592;22;20056;-71
2020/12/10 07:57:31;;;;;;;43.65;13.98;;;4.70;61.10;;;;;;6273317;22;20003;-70
2020/12/10 08:00:04;;;;;;;30.90;13.32;;;4.90;61.00;;;;;;6246635;22;20018;-70
2020/12/10 08:02:52;;;;;;;28.85;13.73;;;4.70;60.70;;;;;;6246815;22;20038;-72
2020/12/10 08:05:19;;;;;;;29.77;14.00;;;4.70;61.00;;;;;;6273148;22;20031;-72
2020/12/10 08:07:53;;;;;;;33.20;14.00;;;4.60;61.20;;;;;;6273589;22;20059;-72
2020/12/10 08:10:30;;;;;;;32.65;13.55;;;4.50;61.60;;;;;;6247531;22;20029;-71
2020/12/10 08:13:20;;;;;;;24.63;13.18;;;4.60;61.40;;;;;;6246094;22;20044;-72
2020/12/10 08:15:48;;;;;;;30.40;14.05;;;4.70;61.70;;;;;;6246125;22;20412;-72
2020/12/10 08:18:20;;;;;;;31.33;13.35;;;4.70;61.00;;;;;;6273797;22;20008;-71
2020/12/10 08:20:51;;;;;;;31.30;14.15;;;4.90;61.20;;;;;;6270618;22;20018;-70
2020/12/10 08:23:19;;;;;;;35.33;14.55;;;4.60;61.30;;;;;;6273491;22;20004;-71
2020/12/10 08:26:06;;;;;;;32.75;14.10;;;4.70;61.40;;;;;;6246580;22;20008;-70
2020/12/10 08:28:32;;;;;;;29.55;13.93;;;;;;;;;;6273540;22;20023;-70
2020/12/10 08:30:59;;;;;;;37.13;14.43;;;;;;;;;;6275319;22;20003;-70
2020/12/10 08:33:39;;;;;;;32.53;13.25;;;4.80;61.20;;;;;;6276755;22;20007;-71
2020/12/10 08:36:05;;;;;;;34.13;13.68;;;;;;;;;;6249062;22;20420;-70
2020/12/10 08:38:31;;;;;;;36.88;13.95;;;;;;;;;;6275531;22;20018;-71
2020/12/10 08:41:07;;;;;;;27.30;13.48;;;4.80;61.20;;;;;;6274282;22;20004;-69
2020/12/10 08:43:33;;;;;;;31.80;13.68;;;;;;;;;;6273328;22;20000;-68
2020/12/10 08:46:13;;;;;;;27.45;12.73;;;4.90;61.20;;;;;;6275331;22;20052;-70
2020/12/10 08:48:40;;;;;;;29.17;13.25;;;;;;;;;;6274890;22;20011;-70
2020/12/10 08:51:06;;;;;;;30.08;14.00;;;;;;;;;;6243853;22;20459;-71
2020/12/10 08:53:32;;;;;;;24.65;11.43;;;;;;;;;;6273888;22;20007;-71
2020/12/10 08:55:59;;;;;;;31.95;13.55;;;;;;;;;;6272444;22;20436;-70
2020/12/10 08:58:27;;;;;;;34.65;14.15;;;4.10;63.40;;;;;;6220483;22;20011;-71
2020/12/10 09:00:55;;;;;;;28.65;12.80;;;4.30;63.30;;;;;;6245010;22;20008;-71
2020/12/10 09:03:22;;;;;;;32.70;13.35;;;;;;;;;;6272370;22;20052;-70
2020/12/10 09:05:51;;;;;;;33.38;14.70;;;;;;;;;;6271757;22;20011;-70
2020/12/10 09:08:18;;;;;;;32.00;13.05;;;;;;;;;;6245264;22;20019;-69
2020/12/10 09:10:45;;;;;;;31.65;13.05;;;;;;;;;;6272520;22;20011;-69
2020/12/10 09:13:12;;;;;;;28.40;14.07;;;4.90;61.80;;;;;;6271268;22;20449;-70
2020/12/10 09:15:40;;;;;;;31.92;15.05;;;5.10;61.00;;;;;;6270840;22;20029;-70
2020/12/10 09:18:07;;;;;;;29.95;13.80;;;5.10;60.90;;;;;;6219956;22;20047;-69
2020/12/10 09:20:36;;;;;;;37.08;16.33;;;5.10;61.00;;;;;;6244807;22;20018;-70
2020/12/10 09:23:02;;;;;;;36.80;14.65;;;;;;;;;;6244881;22;20015;-70
2020/12/10 09:25:33;;;;;;;31.83;14.25;;;5.20;60.70;;;;;;6219153;22;20344;-71
2020/12/10 09:27:59;;;;;;;33.13;14.15;;;;;;;;;;6220095;22;20325;-71
2020/12/10 09:30:25;;;;;;;31.02;15.30;;;;;;;;;;6243254;22;20007;-72
2020/12/10 09:32:52;;;;;;;42.33;16.20;;;;;;;;;;6244264;22;20016;-71
2020/12/10 09:35:18;;;;;;;37.20;14.98;;;;;;;;;;6271725;22;20012;-70
2020/12/10 09:37:45;;;;;;;32.63;15.00;;;;;;;;;;6271219;22;20065;-69
2020/12/10 09:40:13;;;;;;;33.10;15.13;;;5.70;59.40;;;;;;6271723;22;20011;-69
2020/12/10 09:42:43;;;;;;;38.83;16.55;;;5.80;58.80;;;;;;6244657;22;20003;-71
2020/12/10 09:45:09;;;;;;;31.83;15.80;;;;;;;;;;6270710;22;20065;-70
2020/12/10 09:47:35;;;;;;;38.67;15.30;;;;;;;;;;6272008;22;20004;-71
2020/12/10 09:50:17;;;;;;;34.65;13.32;;;5.70;59.70;;;;;;6271020;22;20007;-69
2020/12/10 09:52:50;;;;;;;31.52;15.18;;;;;;;;;;6271236;22;20007;-70
2020/12/10 09:55:36;;;;;;;35.25;13.90;;;;;;;;;;6271607;22;20012;-70
2020/12/10 09:58:02;;;;;;;36.10;14.55;;;;;;;;;;6243843;22;20012;-71
2020/12/10 10:00:29;;;;;;;30.27;12.95;;;4.50;62.40;;;;;;6219404;22;20015;-70
2020/12/10 10:03:06;;;;;;;36.65;15.07;;;;;;;;;;6271177;22;20014;-71
2020/12/10 10:05:43;;;;;;;35.70;15.98;;;4.40;64.10;;;;;;6271517;22;20020;-69
2020/12/10 10:08:10;;;;;;;34.85;13.82;;;;;;;;;;6271344;22;20016;-72
2020/12/10 10:10:36;;;;;;;;;;;4.60;63.80;;;;;;6272203;22;20011;-69
2020/12/10 10:13:02;;;;;;;33.50;15.57;;;;;;;;;;6244178;22;19911;-71
2020/12/10 10:15:29;;;;;;;35.63;16.35;;;;;;;;;;6271508;22;20008;-69
2020/12/10 10:17:56;;;;;;;33.60;15.40;;;5.20;62.30;;;;;;6271763;22;20016;-71
2020/12/10 10:20:23;;;;;;;40.78;15.25;;;;;;;;;;6271228;22;20436;-68
2020/12/10 10:22:50;;;;;;;41.20;15.52;;;;;;;;;;6271726;22;20079;-72
2020/12/10 10:25:21;;;;;;;36.15;14.98;;;5.90;60.40;;;;;;6271083;22;20069;-71
2020/12/10 10:27:49;;;;;;;34.83;14.57;;;;;;;;;;6214810;22;20423;-71
2020/12/10 10:30:15;;;;;;;37.83;15.55;;;;;;;;;;6270828;22;20317;-73
2020/12/10 10:32:42;;;;;;;35.15;13.60;;;5.30;60.80;;;;;;6271610;22;20378;-72
2020/12/10 10:35:09;;;;;;;31.08;12.95;;;;;;;;;;6272951;22;20051;-70
2020/12/10 10:37:35;;;;;;;28.10;12.63;;;;;;;;;;6274083;22;20064;-71
2020/12/10 10:40:01;;;;;;;37.33;13.60;;;;;;;;;;6274052;22;20023;-72
2020/12/10 10:42:28;;;;;;;32.10;13.23;;;;;;;;;;6273172;22;20004;-73
2020/12/10 10:44:54;;;;;;;36.80;14.93;;;;;;;;;;6274250;22;20004;-72
2020/12/10 10:47:20;;;;;;;33.60;15.40;;;;;;;;;;6246248;22;20416;-71
2020/12/10 10:49:50;;;;;;;32.30;15.07;;;;;;;;;;6273642;22;20078;-72
2020/12/10 10:52:16;;;;;;;39.45;15.70;;;;;;;;;;6273541;22;20004;-72
2020/12/10 10:54:48;;;;;;;31.20;14.65;;;;;;;;;;6273573;22;20079;-71
2020/12/10 10:57:14;;;;;;;40.38;14.93;;;;;;;;;;6273273;22;20032;-71
2020/12/10 10:59:42;;;;;;;44.67;15.93;;;;;;;;;;6246267;22;20011;-71
2020/12/10 11:02:09;;;;;;;38.25;16.50;;;6.10;60.20;;;;;;6277950;22;20094;-72
2020/12/10 11:04:36;;;;;;;41.85;17.77;;;;;;;;;;6271843;22;20004;-73
2020/12/10 11:07:02;;;;;;;34.03;15.07;;;;;;;;;;6218081;22;20016;-71
2020/12/10 11:09:44;;;;;;;42.33;16.02;;;;;;;;;;6271073;22;20427;-72
2020/12/10 11:12:13;;;;;;;41.13;17.10;;;;;;;;;;6271027;22;20028;-71
2020/12/10 11:14:39;;;;;;;35.72;15.45;;;;;;;;;;6271183;22;20011;-70
2020/12/10 11:17:06;;;;;;;29.05;14.90;;;;;;;;;;6272248;22;20008;-72
2020/12/10 11:19:32;;;;;;;34.00;15.52;;;;;;;;;;6271939;22;20014;-72
2020/12/10 11:22:03;;;;;;;32.17;13.45;;;5.60;59.60;;;;;;6271273;22;20035;-73
2020/12/10 11:24:29;;;;;;;35.63;13.80;;;;;;;;;;6270539;22;20420;-73
2020/12/10 11:26:55;;;;;;;38.88;15.52;;;;;;;;;;6270155;22;20003;-72
2020/12/10 11:29:23;;;;;;;36.33;15.48;;;;;;;;;;6244052;22;20022;-72
2020/12/10 11:31:56;;;;;;;32.58;15.02;;;;;;;;;;6271178;22;20035;-73
2020/12/10 11:34:23;;;;;;;33.42;13.93;;;;;;;;;;6243568;22;20034;-71
2020/12/10 11:36:50;;;;;;;33.75;15.00;;;;;;;;;;6270056;22;20078;-73
2020/12/10 11:39:17;;;;;;;;;;;6.60;60.00;;;;;;6271193;22;20039;-71
2020/12/10 11:41:43;;;;;;;46.72;16.48;;;;;;;;;;6271384;22;19907;-71
2020/12/10 11:44:11;;;;;;;37.38;15.32;;;;;;;;;;6242171;22;20401;-72
2020/12/10 11:46:47;;;;;;;36.85;16.27;;;6.50;58.50;;;;;;6244085;22;20016;-72
2020/12/10 11:49:20;;;;;;;46.28;17.27;;;6.50;58.50;;;;;;6271686;22;20008;-71
2020/12/10 11:51:47;;;;;;;36.55;16.00;;;;;;;;;;6243370;22;20023;-72
2020/12/10 11:54:13;;;;;;;43.13;16.77;;;;;;;;;;6271050;22;20037;-72
2020/12/10 11:56:39;;;;;;;37.75;16.00;;;;;;;;;;6273842;22;20026;-72
2020/12/10 11:59:05;;;;;;;41.00;15.48;;;;;;;;;;6246621;22;20008;-71
2020/12/10 12:01:31;;;;;;;38.83;16.23;;;;;;;;;;6245201;22;20087;-74
2020/12/10 12:03:59;;;;;;;37.03;15.48;;;7.60;56.20;;;;;;6272519;22;20732;-73
2020/12/10 12:06:28;;;;;;;35.25;16.75;;;7.50;56.20;;;;;;6272998;22;20011;-72
2020/12/10 12:08:58;;;;;;;39.72;15.98;;;;;;;;;;6245328;22;20023;-74
2020/12/10 12:11:25;;;;;;;39.35;15.70;;;7.50;55.90;;;;;;6272547;22;20167;-71
2020/12/10 12:13:52;;;;;;;34.03;15.70;;;;;;;;;;6272791;22;20012;-73
2020/12/10 12:16:18;;;;;;;36.30;16.90;;;7.30;56.60;;;;;;6270197;22;20008;-74
2020/12/10 12:18:50;;;;;;;33.95;16.00;;;;;;;;;;6272493;22;20037;-73
2020/12/10 12:21:28;;;;;;;39.58;17.02;;;7.20;56.80;;;;;;6246233;22;20011;-74
2020/12/10 12:23:55;;;;;;;36.38;14.45;;;;;;;;;;6273272;22;19999;-74
2020/12/10 12:26:32;;;;;;;33.83;16.02;;;7.10;57.40;;;;;;6272332;22;20008;-72
2020/12/10 12:29:04;;;;;;;34.20;15.48;;;;;;;;;;6271905;22;20098;-73
2020/12/10 12:31:38;;;;;;;37.27;15.63;;;6.90;57.50;;;;;;6267860;22;20011;-71
2020/12/10 12:34:05;;;;;;;35.92;15.60;;;;;;;;;;6238060;23;20262;-72
2020/12/10 12:36:31;;;;;;;37.67;15.80;;;;;;;;;;6237721;23;20016;-73
2020/12/10 12:38:58;;;;;;;39.63;16.02;;;;;;;;;;6212287;23;20012;-72
2020/12/10 12:41:33;;;;;;;42.65;16.40;;;6.60;59.20;;;;;;6238237;23;20031;-72
2020/12/10 12:44:01;;;;;;;34.00;15.77;;;;;;;;;;6164240;23;20433;-73
2020/12/10 12:46:27;;;;;;;40.42;16.38;;;6.50;60.00;;;;;;6187303;23;20103;-73
2020/12/10 12:48:55;;;;;;;45.55;16.30;;;;;;;;;;6238035;23;20039;-73
2020/12/10 12:51:22;;;;;;;36.70;15.73;;;;;;;;;;6237546;23;20008;-72
2020/12/10 12:54:12;;;;;;;37.58;15.57;;;7.40;57.40;;;;;;6237743;23;20737;-72
2020/12/10 12:56:44;;;;;;;36.33;15.00;;;7.20;57.10;;;;;;6208432;23;20009;-73
2020/12/10 12:59:14;;;;;;;37.30;16.02;;;7.10;57.70;;;;;;6133622;23;20079;-73
2020/12/10 13:01:40;;;;;;;35.15;16.02;;;;;;;;;;6206123;23;20436;-73
2020/12/10 13:04:15;;;;;;;39.58;15.93;;;;;;;;;;6207021;23;20015;-73
2020/12/10 13:06:46;;;;;;;37.35;15.75;;;7.40;57.70;;;;;;6203731;23;20025;-75
2020/12/10 13:09:13;;;;;;;35.60;14.93;;;7.30;56.80;;;;;;6207335;23;20352;-74
2020/12/10 13:11:44;;;;;;;34.55;15.70;;;;;;;;;;6182345;23;20019;-73
2020/12/10 13:14:11;;;;;;;35.28;15.48;;;7.40;57.20;;;;;;6205986;23;20013;-72
2020/12/10 13:17:00;;;;;;;35.35;15.35;;;7.10;57.70;;;;;;6157686;23;20457;-73
2020/12/10 13:19:27;;;;;;;34.47;15.73;;;;;;;;;;6177832;23;20020;-73
2020/12/10 13:21:53;;;;;;;37.95;15.70;;;;;;;;;;6178123;23;20071;-73
2020/12/10 13:24:20;;;;;;;39.95;15.68;;;;;;;;;;6178254;23;20009;-72
2020/12/10 13:26:46;;;;;;;;;;;7.00;58.10;;;;;;6134511;23;20016;-74
2020/12/10 13:29:12;;;;;;;34.05;14.05;;;;;;;;;;6182097;23;19908;-74
2020/12/10 13:31:39;;;;;;;36.63;16.58;;;;;;;;;;6152623;23;20009;-73
2020/12/10 13:34:05;;;;;;;38.70;16.67;;;;;;;;;;6177182;23;20009;-74
2020/12/10 13:36:32;;;;;;;33.42;15.05;;;7.10;57.30;;;;;;6176889;23;20349;-74
2020/12/10 13:38:59;;;;;;;45.40;16.00;;;7.20;57.10;;;;;;6176705;23;20009;-72
2020/12/10 13:41:25;;;;;;;36.67;16.05;;;;;;;;;;6176856;23;20012;-71
2020/12/10 13:43:52;;;;;;;33.58;15.38;;;;;;;;;;6176999;23;20084;-74
2020/12/10 13:46:18;;;;;;;36.42;15.35;;;;;;;;;;6177741;23;20101;-72
2020/12/10 13:48:45;;;;;;;35.97;15.75;;;;;;;;;;6177388;23;20013;-74